createdAt,value
2019-04-14T00:02:06.080Z,67.57
2019-04-14T00:05:33.712Z,67.70
2019-04-14T00:08:56.502Z,68.77
2019-04-14T00:12:20.768Z,68.80
2019-04-14T00:15:47.005Z,69.61
2019-04-14T00:19:09.131Z,69.97
2019-04-14T00:22:33.332Z,70.33
2019-04-14T00:26:24.900Z,70.01
2019-04-14T00:29:48.027Z,70.83
2019-04-14T00:33:13.205Z,69.89
2019-04-14T00:36:54.589Z,70.98
2019-04-14T00:40:29.990Z,70.26
2019-04-14T00:44:14.649Z,70.19
2019-04-14T00:47:51.743Z,70.94
2019-04-14T00:51:06.964Z,71.87
2019-04-14T00:54:30.474Z,70.33
2019-04-14T00:57:55.134Z,69.31
2019-04-14T01:01:19.747Z,69.75
2019-04-14T01:04:42.823Z,69.97
2019-04-14T01:08:05.799Z,70.28
2019-04-14T01:11:29.163Z,70.68
2019-04-14T01:14:53.783Z,70.14
2019-04-14T01:18:21.135Z,69.52
2019-04-14T01:21:44.331Z,69.40
2019-04-14T01:25:08.588Z,68.49
2019-04-14T01:28:32.970Z,69.48
2019-04-14T01:31:56.203Z,68.54
2019-04-14T01:35:20.287Z,68.75
2019-04-14T01:38:43.413Z,69.23
2019-04-14T01:42:07.124Z,69.92
2019-04-14T01:45:31.647Z,69.32
2019-04-14T01:48:54.800Z,68.85
2019-04-14T01:52:41.945Z,68.37
2019-04-14T01:56:12.336Z,68.17
2019-04-14T01:59:35.463Z,68.12
2019-04-14T02:02:59.714Z,67.44
2019-04-14T02:06:22.909Z,67.69
2019-04-14T02:09:49.507Z,68.49
2019-04-14T02:13:13.553Z,68.35
2019-04-14T02:16:41.963Z,68.22
2019-04-14T02:20:03.209Z,68.00
2019-04-14T02:23:27.901Z,68.52
2019-04-14T02:26:50.989Z,67.98
2019-04-14T02:30:19.577Z,68.04
2019-04-14T02:34:00.801Z,68.51
2019-04-14T02:41:07.351Z,68.65
2019-04-14T02:44:27.017Z,69.38
2019-04-14T02:51:12.491Z,68.89
2019-04-14T02:54:48.057Z,68.64
2019-04-14T02:58:01.671Z,68.85
2019-04-14T03:01:32.863Z,69.16
2019-04-14T03:04:54.405Z,69.46
2019-04-14T03:08:16.994Z,69.16
2019-04-14T03:11:44.425Z,69.20
2019-04-14T03:18:52.424Z,69.53
2019-04-14T03:22:43.815Z,69.09
2019-04-14T03:26:29.456Z,69.34
2019-04-14T03:30:30.258Z,69.41
2019-04-14T03:37:31.059Z,69.50
2019-04-14T03:40:28.046Z,69.28
2019-04-14T03:44:01.267Z,69.25
2019-04-14T03:50:45.970Z,69.51
2019-04-14T03:54:01.669Z,69.63
2019-04-14T03:57:04.391Z,70.01
2019-04-14T04:00:27.432Z,70.18
2019-04-14T04:03:50.416Z,70.35
2019-04-14T04:07:13.444Z,70.44
2019-04-14T04:10:37.908Z,70.61
2019-04-14T04:14:01.306Z,70.84
2019-04-14T04:18:04.782Z,70.92
2019-04-14T04:21:48.703Z,71.60
2019-04-14T04:25:18.268Z,71.23
2019-04-14T04:29:01.003Z,71.65
2019-04-14T04:32:32.654Z,70.94
2019-04-14T04:35:59.341Z,70.73
2019-04-14T04:39:34.631Z,70.33
2019-04-14T04:42:57.000Z,71.09
2019-04-14T04:46:20.358Z,70.73
2019-04-14T04:49:44.614Z,70.45
2019-04-14T04:53:08.978Z,71.13
2019-04-14T04:56:32.148Z,70.85
2019-04-14T04:59:56.234Z,70.23
2019-04-14T05:03:19.349Z,70.12
2019-04-14T05:06:57.223Z,70.55
2019-04-14T05:10:35.001Z,69.33
2019-04-14T05:14:00.069Z,69.18
2019-04-14T05:17:23.801Z,68.94
2019-04-14T05:20:49.181Z,69.45
2019-04-14T05:24:13.538Z,69.22
2019-04-14T05:27:36.808Z,69.30
2019-04-14T05:31:01.103Z,69.06
2019-04-14T05:34:26.080Z,68.74
2019-04-14T05:37:49.230Z,68.40
2019-04-14T05:41:13.581Z,68.77
2019-04-14T05:44:36.884Z,68.23
2019-04-14T05:48:00.988Z,68.21
2019-04-14T05:51:26.298Z,67.63
2019-04-14T05:54:49.716Z,67.66
2019-04-14T05:58:12.692Z,67.74
2019-04-14T06:01:36.590Z,67.00
2019-04-14T06:05:00.457Z,66.89
2019-04-14T06:08:24.501Z,66.55
2019-04-14T06:11:50.701Z,65.79
2019-04-14T06:15:14.250Z,65.69
2019-04-14T06:18:37.309Z,66.44
2019-04-14T06:22:00.327Z,66.28
2019-04-14T06:25:23.355Z,66.32
2019-04-14T06:28:48.579Z,66.17
2019-04-14T06:32:34.204Z,65.58
2019-04-14T06:36:19.056Z,66.06
2019-04-14T06:39:44.772Z,65.72
2019-04-14T06:43:08.268Z,64.71
2019-04-14T06:46:31.409Z,64.23
2019-04-14T06:49:54.458Z,64.23
2019-04-14T06:53:18.136Z,64.29
2019-04-14T06:56:41.425Z,64.72
2019-04-14T07:00:04.762Z,63.65
2019-04-14T07:03:28.613Z,63.45
2019-04-14T07:06:51.886Z,62.72
2019-04-14T07:10:14.860Z,63.76
2019-04-14T07:13:40.113Z,62.96
2019-04-14T07:17:04.142Z,62.40
2019-04-14T07:20:27.126Z,64.41
2019-04-14T07:23:50.216Z,64.20
2019-04-14T07:27:13.230Z,63.46
2019-04-14T07:31:01.202Z,63.15
2019-04-14T07:34:41.108Z,63.89
2019-04-14T07:38:24.657Z,63.23
2019-04-14T07:41:53.841Z,62.14
2019-04-14T07:45:26.984Z,61.85
2019-04-14T07:48:55.528Z,59.93
2019-04-14T07:52:37.110Z,58.52
2019-04-14T07:56:14.098Z,59.13
2019-04-14T07:59:52.556Z,59.14
2019-04-14T08:03:32.652Z,58.57
2019-04-14T08:06:57.844Z,58.44
2019-04-14T08:10:20.907Z,58.16
2019-04-14T08:13:44.007Z,57.57
2019-04-14T08:17:07.184Z,57.84
2019-04-14T08:20:30.522Z,58.25
2019-04-14T08:23:53.581Z,58.42
2019-04-14T08:27:16.674Z,56.03
2019-04-14T08:30:39.719Z,56.41
2019-04-14T08:34:02.884Z,55.79
2019-04-14T08:37:25.906Z,56.88
2019-04-14T08:40:49.816Z,54.54
2019-04-14T08:44:27.409Z,54.28
2019-04-14T08:47:59.828Z,53.31
2019-04-14T08:51:48.495Z,51.92
2019-04-14T08:55:21.266Z,52.31
2019-04-14T08:59:03.920Z,52.58
2019-04-14T09:02:56.731Z,52.04
2019-04-14T09:06:35.135Z,51.75
2019-04-14T09:10:14.323Z,51.86
2019-04-14T09:13:37.506Z,50.36
2019-04-14T09:17:01.394Z,49.21
2019-04-14T09:20:24.493Z,49.80
2019-04-14T09:23:48.068Z,50.63
2019-04-14T09:27:11.073Z,49.22
2019-04-14T09:30:34.045Z,49.20
2019-04-14T09:34:00.158Z,48.21
2019-04-14T09:37:23.274Z,48.12
2019-04-14T09:40:46.435Z,46.46
2019-04-14T09:44:09.493Z,45.47
2019-04-14T09:47:32.634Z,47.70
2019-04-14T09:51:04.784Z,43.75
2019-04-14T09:54:22.893Z,44.32
2019-04-14T09:57:45.995Z,43.01
2019-04-14T10:01:09.241Z,43.23
2019-04-14T10:04:32.625Z,42.01
2019-04-14T10:07:55.682Z,40.59
2019-04-14T10:11:21.116Z,39.10
2019-04-14T10:14:44.269Z,38.71
2019-04-14T10:18:07.725Z,37.92
2019-04-14T10:21:30.895Z,38.28
2019-04-14T10:24:54.364Z,36.25
2019-04-14T10:28:17.652Z,33.75
2019-04-14T10:31:40.959Z,35.60
2019-04-14T10:35:04.276Z,34.95
2019-04-14T10:38:30.491Z,33.02
2019-04-14T10:41:54.220Z,30.98
2019-04-14T10:45:18.502Z,31.92
2019-04-14T10:48:41.573Z,31.68
2019-04-14T10:52:04.877Z,31.16
2019-04-14T10:55:30.953Z,29.47
2019-04-14T10:58:54.098Z,28.26
2019-04-14T11:02:17.161Z,27.73
2019-04-14T11:05:49.251Z,28.25
2019-04-14T11:09:16.048Z,30.73
2019-04-14T11:12:39.095Z,30.14
2019-04-14T11:16:02.214Z,26.59
2019-04-14T11:19:25.359Z,27.52
2019-04-14T11:22:49.473Z,27.08
2019-04-14T11:26:12.576Z,27.78
2019-04-14T11:29:35.788Z,26.89
2019-04-14T11:33:17.061Z,26.46
2019-04-14T11:36:49.708Z,25.66
2019-04-14T11:40:15.624Z,25.60
2019-04-14T11:43:38.779Z,24.39
2019-04-14T11:47:02.919Z,25.61
2019-04-14T11:50:28.466Z,26.71
2019-04-14T11:53:51.513Z,24.67
2019-04-14T11:57:14.668Z,24.66
2019-04-14T12:00:57.732Z,25.83
2019-04-14T12:04:27.774Z,23.99
2019-04-14T12:08:01.029Z,24.25
2019-04-14T12:11:24.183Z,25.91
2019-04-14T12:14:47.282Z,25.40
2019-04-14T12:18:10.390Z,26.71
2019-04-14T12:21:33.437Z,24.46
2019-04-14T12:24:58.915Z,24.53
2019-04-14T12:28:22.010Z,23.49
2019-04-14T12:31:46.485Z,23.49
2019-04-14T12:35:10.503Z,23.33
2019-04-14T12:38:33.685Z,24.46
2019-04-14T12:42:26.680Z,22.43
2019-04-14T12:46:08.294Z,21.79
2019-04-14T12:49:36.284Z,22.72
2019-04-14T12:52:59.305Z,22.30
2019-04-14T12:56:25.010Z,21.25
2019-04-14T12:59:48.423Z,22.69
2019-04-14T13:03:11.435Z,23.19
2019-04-14T13:06:34.600Z,22.72
2019-04-14T13:09:58.965Z,21.38
2019-04-14T13:13:21.981Z,20.46
2019-04-14T13:16:46.138Z,20.63
2019-04-14T13:20:09.526Z,22.08
2019-04-14T13:23:32.707Z,21.77
2019-04-14T13:26:55.876Z,21.67
2019-04-14T13:30:27.097Z,21.10
2019-04-14T13:33:50.201Z,22.48
2019-04-14T13:37:13.552Z,22.82
2019-04-14T13:40:36.562Z,25.47
2019-04-14T13:43:59.872Z,25.41
2019-04-14T13:47:22.871Z,22.35
2019-04-14T13:50:46.191Z,23.45
2019-04-14T13:54:09.236Z,24.04
2019-04-14T13:57:32.298Z,23.60
2019-04-14T14:00:55.397Z,23.15
2019-04-14T14:04:18.773Z,24.35
2019-04-14T14:07:41.847Z,23.65
2019-04-14T14:11:42.760Z,22.17
2019-04-14T14:15:25.337Z,22.09
2019-04-14T14:19:04.804Z,23.18
2019-04-14T14:22:59.276Z,21.77
2019-04-14T14:26:19.328Z,22.03
2019-04-14T14:29:42.407Z,22.52
2019-04-14T14:33:05.637Z,20.84
2019-04-14T14:36:29.076Z,21.28
2019-04-14T14:39:53.146Z,21.01
2019-04-14T14:43:16.234Z,21.57
2019-04-14T14:46:45.409Z,22.21
2019-04-14T14:50:17.667Z,21.48
2019-04-14T14:53:40.857Z,20.58
2019-04-14T14:57:04.105Z,22.72
2019-04-14T15:00:30.329Z,24.15
2019-04-14T15:03:53.429Z,26.35
2019-04-14T15:07:16.784Z,25.61
2019-04-14T15:10:39.808Z,23.55
2019-04-14T15:14:03.660Z,21.53
2019-04-14T15:17:29.860Z,22.39
2019-04-14T15:20:52.888Z,22.60
2019-04-14T15:24:15.920Z,22.30
2019-04-14T15:27:39.128Z,21.39
2019-04-14T15:31:02.338Z,20.81
2019-04-14T15:34:28.994Z,21.91
2019-04-14T15:37:52.250Z,22.24
2019-04-14T15:41:15.430Z,23.62
2019-04-14T15:44:38.574Z,25.96
2019-04-14T15:48:01.687Z,26.29
2019-04-14T15:51:29.312Z,24.76
2019-04-14T15:54:52.663Z,23.92
2019-04-14T15:58:24.645Z,27.54
2019-04-14T16:02:09.936Z,30.22
2019-04-14T16:05:48.587Z,31.18
2019-04-14T16:09:49.559Z,31.12
2019-04-14T16:13:28.980Z,28.43
2019-04-14T16:17:10.219Z,25.66
2019-04-14T16:20:35.710Z,24.13
2019-04-14T16:23:59.043Z,26.41
2019-04-14T16:27:57.098Z,29.06
2019-04-14T16:31:38.340Z,31.13
2019-04-14T16:35:08.942Z,31.67
2019-04-14T16:38:32.829Z,33.13
2019-04-14T16:41:57.761Z,33.50
2019-04-14T16:45:22.759Z,33.18
2019-04-14T16:48:46.279Z,34.76
2019-04-14T16:52:27.742Z,35.60
2019-04-14T16:56:17.972Z,35.46
2019-04-14T16:59:51.841Z,35.37
2019-04-14T17:03:14.898Z,35.51
2019-04-14T17:06:37.927Z,36.12
2019-04-14T17:10:01.081Z,36.14
2019-04-14T17:13:29.481Z,35.70
2019-04-14T17:17:10.671Z,36.38
2019-04-14T17:21:02.029Z,35.95
2019-04-14T17:24:38.892Z,36.69
2019-04-14T17:28:21.482Z,37.20
2019-04-14T17:32:06.640Z,37.19
2019-04-14T17:35:49.356Z,38.05
2019-04-14T17:39:25.527Z,38.87
2019-04-14T17:43:05.299Z,38.25
2019-04-14T17:47:00.179Z,39.30
2019-04-14T17:50:39.985Z,39.09
2019-04-14T17:54:03.238Z,38.77
2019-04-14T17:57:44.946Z,40.32
2019-04-14T18:01:42.804Z,40.54
2019-04-14T18:05:14.980Z,41.07
2019-04-14T18:09:01.446Z,41.88
2019-04-14T18:12:36.028Z,41.40
2019-04-14T18:16:21.590Z,41.05
2019-04-14T18:19:59.743Z,40.43
2019-04-14T18:23:22.877Z,40.63
2019-04-14T18:26:45.942Z,40.73
2019-04-14T18:30:18.264Z,39.67
2019-04-14T18:34:12.417Z,40.77
2019-04-14T18:38:06.093Z,41.64
2019-04-14T18:41:39.409Z,41.65
2019-04-14T18:45:15.059Z,41.33
2019-04-14T18:48:57.851Z,42.55
2019-04-14T18:52:38.744Z,43.41
2019-04-14T18:56:19.392Z,42.66
2019-04-14T19:00:20.756Z,42.10
2019-04-14T19:03:44.209Z,42.76
2019-04-14T19:07:07.453Z,42.32
2019-04-14T19:10:30.973Z,41.85
2019-04-14T19:13:55.370Z,42.97
2019-04-14T19:17:27.780Z,43.35
2019-04-14T19:20:55.821Z,43.46
2019-04-14T19:24:23.084Z,43.44
2019-04-14T19:27:46.289Z,43.97
2019-04-14T19:31:09.747Z,44.16
2019-04-14T19:34:33.062Z,44.72
2019-04-14T19:37:58.871Z,45.22
2019-04-14T19:41:30.147Z,44.92
2019-04-14T19:44:50.105Z,45.44
2019-04-14T19:48:18.065Z,45.21
2019-04-14T19:51:41.211Z,45.22
2019-04-14T19:55:04.644Z,45.40
2019-04-14T19:58:29.974Z,44.96
2019-04-14T20:01:53.199Z,44.61
2019-04-14T20:05:16.406Z,45.81
2019-04-14T20:08:39.623Z,46.71
2019-04-14T20:12:04.186Z,46.41
2019-04-14T20:15:33.797Z,46.73
2019-04-14T20:19:11.027Z,46.50
2019-04-14T20:23:08.935Z,47.09
2019-04-14T20:26:50.584Z,48.19
2019-04-14T20:30:22.267Z,47.99
2019-04-14T20:33:45.437Z,47.98
2019-04-14T20:37:09.414Z,48.25
2019-04-14T20:40:32.452Z,48.98
2019-04-14T20:44:01.885Z,48.74
2019-04-14T20:47:31.306Z,49.25
2019-04-14T20:50:54.397Z,49.54
2019-04-14T20:54:17.835Z,50.22
2019-04-14T20:57:41.718Z,51.44
2019-04-14T21:01:09.734Z,51.48
2019-04-14T21:04:49.850Z,51.72
2019-04-14T21:08:42.286Z,52.39
2019-04-14T21:12:29.566Z,52.51
2019-04-14T21:16:12.490Z,52.80
2019-04-14T21:19:47.825Z,52.85
2019-04-14T21:23:36.260Z,52.50
2019-04-14T21:27:07.672Z,53.12
2019-04-14T21:30:41.176Z,54.02
2019-04-14T21:34:14.371Z,54.16
2019-04-14T21:38:06.303Z,54.80
2019-04-14T21:41:30.034Z,54.78
2019-04-14T21:44:53.094Z,54.98
2019-04-14T21:48:16.181Z,55.34
2019-04-14T21:52:03.400Z,55.16
2019-04-14T21:55:29.790Z,55.63
2019-04-14T21:59:12.628Z,55.98
2019-04-14T22:02:54.075Z,56.46
2019-04-14T22:06:23.177Z,57.05
2019-04-14T22:09:46.893Z,56.17
2019-04-14T22:13:10.198Z,55.50
2019-04-14T22:16:33.399Z,56.27
2019-04-14T22:19:59.761Z,54.99
2019-04-14T22:23:25.072Z,55.51
2019-04-14T22:26:48.343Z,55.41
2019-04-14T22:30:11.973Z,55.42
2019-04-14T22:33:35.556Z,55.29
2019-04-14T22:36:58.787Z,55.71
2019-04-14T22:40:21.877Z,55.44
2019-04-14T22:43:45.171Z,55.40
2019-04-14T22:47:08.606Z,56.25
2019-04-14T22:50:31.572Z,56.70
2019-04-14T22:53:54.814Z,57.24
2019-04-14T22:57:18.341Z,56.61
2019-04-14T23:00:49.526Z,57.14
2019-04-14T23:04:34.590Z,56.26
2019-04-14T23:08:09.350Z,57.25
2019-04-14T23:11:55.043Z,57.84
2019-04-14T23:15:35.176Z,58.19
2019-04-14T23:19:13.007Z,57.65
2019-04-14T23:22:54.705Z,58.37
2019-04-14T23:26:18.653Z,58.04
2019-04-14T23:29:42.063Z,57.56
2019-04-14T23:33:05.307Z,58.12
2019-04-14T23:36:31.248Z,58.04
2019-04-14T23:39:54.624Z,58.01
2019-04-14T23:43:18.013Z,57.88
2019-04-14T23:46:41.523Z,56.50
2019-04-14T23:50:04.962Z,57.62
2019-04-14T23:53:29.659Z,57.99
2019-04-14T23:57:04.880Z,57.67
